Time;durP1;ratioP1;P1;durP2;ratioP2;P2;SDS_P1;SDS_P2;PMS_P1;PMS_P2;Temp;Humidity;BMP_temperature;BMP_pressure;BME280_temperature;BME280_humidity;BME280_pressure;Samples;Min_cycle;Max_cycle;Signal;HPM_P1;HPM_P2
2022/08/23 00:02:28;;;;;;;11.83;6.27;;;18.30;99.90;;;18.53;79.35;101225.97;4925042;29;20429;-71
2022/08/23 00:04:57;;;;;;;5.47;4.97;;;18.30;99.90;;;18.39;80.74;101229.25;4917019;29;20642;-72
2022/08/23 00:07:38;;;;;;;6.83;5.50;;;18.30;99.90;;;18.62;78.83;101224.50;4919168;29;20715;-72
2022/08/23 00:10:10;;;;;;;5.33;4.80;;;18.30;99.90;;;18.57;79.75;101229.88;4913190;29;20469;-73
2022/08/23 00:12:39;;;;;;;6.00;4.97;;;18.40;1.00;;;18.53;80.08;101220.50;4913017;29;20452;-73
2022/08/23 00:15:12;;;;;;;6.30;5.80;;;18.30;1.00;;;18.34;81.04;101219.03;4910457;29;20458;-72
2022/08/23 00:17:42;;;;;;;6.03;5.47;;;18.20;1.00;;;18.39;80.81;101216.38;4921515;29;20461;-73
2022/08/23 00:20:17;;;;;;;8.07;5.23;;;18.20;1.00;;;18.39;80.74;101221.84;4925077;29;20501;-73
2022/08/23 00:22:46;;;;;;;7.50;5.87;;;18.20;1.00;;;18.34;80.75;101219.03;4913968;29;20499;-73
2022/08/23 00:25:16;;;;;;;6.53;5.40;;;18.20;1.00;;;18.30;80.92;101212.34;4916870;29;20432;-73
2022/08/23 00:27:45;;;;;;;5.20;4.57;;;18.20;1.00;;;18.29;81.00;101207.97;4910616;29;20496;-73
2022/08/23 00:30:16;;;;;;;7.63;5.70;;;18.20;1.00;;;18.22;81.57;101215.47;4911574;29;20793;-73
2022/08/23 00:32:47;;;;;;;5.97;5.37;;;18.10;1.00;;;18.39;80.58;101204.59;4909601;29;20434;-72
2022/08/23 00:35:18;;;;;;;6.20;5.23;;;18.20;1.00;;;18.71;78.93;101215.84;4923621;29;20403;-72
2022/08/23 00:37:57;;;;;;;6.93;4.40;;;18.40;1.00;;;18.38;80.43;101209.22;4912636;29;20439;-72
2022/08/23 00:40:50;;;;;;;5.23;4.70;;;18.30;1.00;;;18.26;81.20;101216.66;4925021;29;20442;-72
2022/08/23 00:49:18;;;;;;;5.30;4.90;;;18.10;1.00;;;18.18;81.89;101208.84;4912844;29;20426;-73
2022/08/23 00:51:57;;;;;;;8.33;5.70;;;18.10;1.00;;;18.20;81.75;101206.69;4910277;29;20451;-72
2022/08/23 00:54:30;;;;;;;5.27;4.77;;;18.10;99.90;;;18.27;81.42;101206.53;4914373;29;20431;-72
2022/08/23 00:57:04;;;;;;;7.07;6.20;;;18.10;1.00;;;18.19;81.96;101205.03;4917294;29;20918;-72
2022/08/23 00:59:34;;;;;;;6.17;5.03;;;18.00;1.00;;;18.24;81.46;101202.38;4915888;29;20475;-71
2022/08/23 01:02:05;;;;;;;7.00;6.33;;;18.00;68.90;;;18.17;81.71;101201.69;4922838;29;20436;-72
2022/08/23 01:04:44;;;;;;;6.70;6.03;;;18.00;66.60;;;18.24;81.07;101205.13;4918646;29;20533;-72
2022/08/23 01:07:29;;;;;;;6.90;4.50;;;18.00;26.00;;;18.17;81.50;101204.44;4915773;29;20782;-73
2022/08/23 01:10:15;;;;;;;4.70;4.07;;;18.00;6.60;;;18.15;81.49;101199.19;4916316;29;20437;-72
2022/08/23 01:12:55;;;;;;;6.20;5.33;;;18.00;46.70;;;18.18;81.18;101203.34;4912802;29;20419;-73
2022/08/23 01:15:32;;;;;;;4.83;4.30;;;18.00;1.00;;;18.18;80.96;101200.63;4918007;29;20432;-72
2022/08/23 01:18:06;;;;;;;5.07;4.30;;;17.90;99.90;;;18.15;80.97;101195.66;4919321;29;20451;-73
2022/08/23 01:20:45;;;;;;;5.90;4.60;;;18.00;1.00;;;18.11;81.12;101197.19;4931695;29;20432;-73
2022/08/23 01:23:41;;;;;;;4.57;4.17;;;18.00;1.50;;;18.48;79.05;101197.63;4914680;29;20983;-72
2022/08/23 01:26:13;;;;;;;5.47;3.80;;;18.10;20.90;;;18.51;77.87;101194.38;4920977;29;20407;-72
2022/08/23 01:28:51;;;;;;;9.13;4.10;;;18.20;1.00;;;18.61;77.31;101197.31;4918948;29;20495;-73
2022/08/23 01:31:24;;;;;;;4.80;3.97;;;18.30;54.30;;;18.39;77.99;101199.94;4918949;29;20501;-73
2022/08/23 01:33:59;;;;;;;5.70;4.13;;;18.20;99.90;;;18.33;77.71;101216.50;4912570;29;20440;-73
2022/08/23 01:36:30;;;;;;;5.37;4.27;;;18.20;99.90;;;18.35;77.97;101198.75;4930214;29;20510;-72
2022/08/23 01:39:01;;;;;;;4.73;4.23;;;18.10;99.90;;;18.21;78.05;101203.69;4919295;29;20452;-73
2022/08/23 01:41:31;;;;;;;7.60;4.43;;;18.10;99.90;;;18.16;78.60;101211.81;4930770;29;20429;-72
2022/08/23 01:44:01;;;;;;;4.33;3.43;;;18.00;99.90;;;18.15;78.46;101207.41;4914702;29;20473;-72
2022/08/23 01:46:30;;;;;;;10.83;4.63;;;18.00;99.90;;;18.21;78.08;101214.66;4912160;29;20458;-73
2022/08/23 01:48:59;;;;;;;4.23;3.83;;;18.00;99.90;;;18.22;77.62;101202.63;4906233;29;20453;-73
2022/08/23 01:51:32;;;;;;;4.73;3.50;;;18.00;99.90;;;18.22;77.13;101204.53;4908788;29;20467;-73
2022/08/23 01:54:03;;;;;;;3.90;3.33;;;18.00;99.90;;;18.24;77.03;101208.69;4939833;29;20507;-73
2022/08/23 01:56:34;;;;;;;4.07;3.63;;;18.00;99.90;;;18.17;77.42;101199.78;4920949;29;20447;-72
2022/08/23 01:59:13;;;;;;;5.80;4.40;;;18.00;99.90;;;18.21;76.97;101203.69;4917211;29;20477;-73
2022/08/23 02:01:47;;;;;;;4.63;3.83;;;18.00;99.90;;;18.15;77.45;101201.13;4920665;29;20424;-71
2022/08/23 02:04:18;;;;;;;4.27;3.80;;;18.00;99.90;;;18.22;76.97;101201.78;4933270;29;20501;-73
2022/08/23 02:06:47;;;;;;;6.90;3.70;;;18.00;99.90;;;18.10;77.66;101207.34;4910815;29;20425;-72
2022/08/23 02:09:24;;;;;;;4.40;3.90;;;17.90;99.90;;;18.14;77.58;101204.94;4926774;29;20424;-72
2022/08/23 02:11:57;;;;;;;5.57;3.87;;;18.00;99.90;;;18.14;77.43;101200.28;4904371;29;20869;-72
2022/08/23 02:14:26;;;;;;;7.17;4.10;;;18.00;99.90;;;18.13;77.35;101203.25;4915375;29;20482;-73
2022/08/23 02:17:01;;;;;;;4.63;3.50;;;18.00;99.90;;;18.05;77.76;101199.03;4908083;29;20404;-73
2022/08/23 02:19:35;;;;;;;6.67;4.63;;;17.90;99.90;;;18.10;77.37;101203.75;4917242;29;20448;-73
2022/08/23 02:22:07;;;;;;;4.10;3.00;;;17.90;99.90;;;18.01;77.57;101197.81;4916756;29;20420;-73
2022/08/23 02:24:42;;;;;;;6.03;3.57;;;17.80;99.90;;;18.06;77.19;101197.09;4914454;29;20921;-73
2022/08/23 02:27:14;;;;;;;3.83;3.30;;;17.80;99.90;;;17.99;77.52;101191.78;4911188;29;20461;-73
2022/08/23 02:29:46;;;;;;;5.83;3.50;;;17.80;99.90;;;18.04;77.23;101196.50;4913593;29;20432;-72
2022/08/23 02:32:19;;;;;;;5.80;4.10;;;17.80;99.90;;;17.98;77.60;101195.56;4913609;29;20428;-73
2022/08/23 02:34:50;;;;;;;5.40;4.33;;;17.80;99.90;;;17.97;77.82;101190.34;4912293;29;20503;-72
2022/08/23 02:37:34;;;;;;;4.57;3.97;;;17.80;99.90;;;17.99;77.79;101188.19;4924032;29;20437;-73
2022/08/23 02:40:08;;;;;;;6.70;4.30;;;17.80;99.90;;;17.92;78.03;101187.50;4914344;29;20485;-73
2022/08/23 02:42:37;;;;;;;7.30;3.90;;;17.70;99.90;;;17.91;78.25;101185.84;4931530;29;20451;-71
2022/08/23 02:45:08;;;;;;;6.70;4.40;;;17.70;99.90;;;17.99;77.89;101188.19;4908545;29;20532;-72
2022/08/23 02:47:45;;;;;;;6.60;4.23;;;17.70;99.90;;;17.85;78.38;101193.13;4914367;29;20820;-72
2022/08/23 02:50:22;;;;;;;3.90;3.50;;;17.70;99.90;;;17.74;79.15;101192.09;4925353;29;20453;-72
2022/08/23 02:52:51;;;;;;;10.47;4.47;;;17.60;99.90;;;17.89;78.73;101199.78;4920717;29;20412;-72
2022/08/23 02:55:22;;;;;;;7.37;4.27;;;17.60;99.90;;;17.91;78.55;101194.88;4913884;29;20914;-72
2022/08/23 02:57:51;;;;;;;4.03;3.60;;;17.70;99.90;;;18.02;78.16;101198.66;4918323;29;20433;-72
2022/08/23 03:00:21;;;;;;;5.20;4.70;;;17.80;99.90;;;17.89;78.85;101201.69;4919987;29;20462;-73
2022/08/23 03:02:51;;;;;;;4.43;4.10;;;17.70;99.90;;;17.97;78.52;101193.91;4915437;29;21142;-72
2022/08/23 03:05:20;;;;;;;5.37;3.70;;;17.70;99.90;;;17.89;78.98;101198.94;4914052;29;20414;-72
2022/08/23 03:07:49;;;;;;;7.10;4.40;;;17.70;99.90;;;17.93;78.92;101205.59;4916813;29;20419;-72
2022/08/23 03:10:19;;;;;;;6.57;4.60;;;17.70;99.90;;;18.14;78.54;101197.56;4918211;29;20446;-72
2022/08/23 03:12:55;;;;;;;8.03;4.77;;;17.80;99.90;;;18.21;78.01;101208.34;4921040;29;20498;-73
2022/08/23 03:15:24;;;;;;;6.23;5.63;;;17.90;99.90;;;18.00;78.96;101207.13;4911080;29;20477;-73
2022/08/23 03:17:53;;;;;;;7.23;5.20;;;17.90;99.90;;;18.14;78.46;101213.16;4923670;29;20420;-72
2022/08/23 03:20:22;;;;;;;4.77;4.37;;;17.90;99.90;;;18.39;77.62;101219.13;4912864;29;20440;-72
2022/08/23 03:22:52;;;;;;;6.37;4.97;;;18.00;99.90;;;18.26;77.67;101216.66;4916309;29;20548;-73
2022/08/23 03:25:24;;;;;;;10.80;4.60;;;18.00;99.90;;;18.55;76.48;101221.06;4925459;29;20449;-73
2022/08/23 03:28:10;;;;;;;6.60;4.80;;;18.20;99.90;;;18.36;77.15;101229.72;4912023;29;20544;-72
2022/08/23 03:30:43;;;;;;;5.83;4.40;;;18.20;99.90;;;18.25;77.70;101229.50;4928687;29;20800;-72
2022/08/23 03:33:14;;;;;;;10.87;5.40;;;18.10;99.90;;;17.94;79.17;101230.00;4924434;29;20485;-73
2022/08/23 03:35:44;;;;;;;6.93;4.67;;;17.90;99.90;;;17.88;79.91;101230.13;4920814;29;20844;-73
2022/08/23 03:38:15;;;;;;;5.90;4.40;;;17.80;99.90;;;18.01;79.25;101232.59;4912989;29;20437;-73
2022/08/23 03:40:44;;;;;;;5.07;4.50;;;17.80;99.90;;;18.21;78.48;101236.56;4912873;29;20469;-74
2022/08/23 03:43:15;;;;;;;5.73;4.90;;;17.90;99.90;;;18.21;78.15;101230.25;4927484;29;20856;-72
2022/08/23 03:45:45;;;;;;;4.80;4.40;;;18.00;99.90;;;18.09;78.99;101237.69;4929013;29;20455;-73
2022/08/23 03:48:15;;;;;;;12.93;5.30;;;17.90;99.90;;;18.10;78.83;101231.16;4918847;29;20438;-73
2022/08/23 03:50:45;;;;;;;6.13;4.50;;;17.90;99.90;;;18.01;79.35;101235.34;4928898;29;20448;-72
2022/08/23 03:53:16;;;;;;;7.20;5.10;;;17.80;99.90;;;17.93;79.82;101243.91;4926366;29;20914;-72
2022/08/23 03:55:47;;;;;;;4.80;4.30;;;17.80;99.90;;;18.02;79.58;101242.47;4912844;29;20444;-74
2022/08/23 03:58:20;;;;;;;6.37;4.70;;;17.80;99.90;;;18.17;78.87;101245.50;4914053;29;20495;-72
2022/08/23 04:00:49;;;;;;;9.23;5.60;;;17.90;99.90;;;18.14;78.72;101246.00;4931437;29;20473;-72
2022/08/23 04:03:18;;;;;;;9.57;4.67;;;18.00;99.90;;;18.02;79.55;101239.72;4932625;29;20451;-73
2022/08/23 04:06:06;;;;;;;6.60;4.87;;;17.90;99.90;;;18.07;79.24;101246.16;4927490;29;20431;-73
2022/08/23 04:08:36;;;;;;;5.60;4.30;;;17.90;99.90;;;18.07;79.26;101239.84;4915576;29;20500;-73
2022/08/23 04:11:06;;;;;;;6.17;4.70;;;17.90;99.90;;;17.99;79.80;101240.22;4930447;29;20433;-73
2022/08/23 04:13:40;;;;;;;6.43;4.90;;;17.80;99.90;;;17.92;80.31;101242.25;4916516;29;20988;-72
2022/08/23 04:16:10;;;;;;;5.77;5.30;;;17.80;99.90;;;17.99;79.90;101241.06;4914744;29;20778;-72
2022/08/23 04:18:40;;;;;;;10.53;5.07;;;17.80;99.90;;;17.91;80.39;101238.69;4931383;29;20896;-73
2022/08/23 04:21:21;;;;;;;5.83;5.10;;;17.70;99.90;;;17.96;80.63;101237.97;4929725;29;20436;-72
2022/08/23 04:23:51;;;;;;;9.10;5.10;;;17.80;99.90;;;17.80;80.93;101234.09;4908344;29;20578;-73
2022/08/23 04:26:21;;;;;;;5.70;5.20;;;17.70;99.90;;;17.87;80.65;101248.47;4909931;29;20876;-72
2022/08/23 04:28:57;;;;;;;6.47;5.40;;;17.70;99.90;;;17.81;80.90;101242.03;4912024;29;20761;-73
2022/08/23 04:31:27;;;;;;;8.03;6.00;;;17.60;99.90;;;17.81;81.23;101241.22;4915534;29;20479;-73
2022/08/23 04:34:04;;;;;;;7.20;6.17;;;17.60;99.90;;;17.70;81.85;101239.34;4909707;29;20459;-73
2022/08/23 04:36:38;;;;;;;10.70;5.33;;;17.60;99.90;;;17.73;81.98;101245.16;4917496;29;20452;-73
2022/08/23 04:39:12;;;;;;;8.60;5.03;;;17.50;99.90;;;17.76;81.87;101239.22;4933184;29;20935;-72
2022/08/23 04:44:31;;;;;;;7.57;5.13;;;17.50;99.90;;;17.75;82.26;101248.50;4918176;29;20565;-73
2022/08/23 04:47:02;;;;;;;14.03;6.20;;;17.50;99.90;;;17.73;82.18;101249.78;4931354;29;20434;-73
2022/08/23 04:49:32;;;;;;;7.17;5.80;;;17.50;99.90;;;17.74;82.58;101249.56;4930886;29;20419;-73
2022/08/23 04:52:02;;;;;;;7.43;4.90;;;17.50;99.90;;;17.85;81.92;101247.03;4930676;29;20971;-72
2022/08/23 04:54:32;;;;;;;12.13;6.33;;;17.60;99.90;;;17.91;81.75;101257.03;4934977;29;20535;-72
2022/08/23 04:57:24;;;;;;;6.27;5.67;;;17.70;99.90;;;17.80;82.48;101261.47;4915674;29;20412;-73
2022/08/23 04:59:55;;;;;;;6.33;5.07;;;17.60;99.90;;;17.77;82.79;101260.03;4916457;29;20469;-73
2022/08/23 05:02:24;;;;;;;8.03;6.20;;;17.60;99.90;;;17.76;83.11;101261.13;4917510;29;20471;-73
2022/08/23 05:04:53;;;;;;;6.37;5.07;;;17.50;99.90;;;17.76;83.17;101263.84;4917164;29;20487;-73
2022/08/23 05:07:23;;;;;;;11.40;4.93;;;17.50;99.90;;;17.81;82.77;101263.13;4923339;29;20408;-73
2022/08/23 05:10:15;;;;;;;11.10;5.90;;;17.60;99.90;;;17.85;83.09;101261.56;4935161;29;20437;-73
2022/08/23 05:12:51;;;;;;;9.40;5.90;;;17.60;99.90;;;17.80;83.52;101273.25;4936071;29;20440;-72
2022/08/23 05:15:23;;;;;;;8.77;6.07;;;17.60;99.90;;;18.10;81.96;101273.06;4923962;29;20478;-73
2022/08/23 05:18:02;;;;;;;5.83;5.23;;;17.70;99.90;;;18.03;82.40;101266.03;4961017;23;20468;-71
2022/08/23 05:20:33;;;;;;;6.00;5.37;;;17.80;99.90;;;18.08;82.15;101268.88;4963258;28;20480;-70
2022/08/23 05:23:03;;;;;;;10.30;4.70;;;17.80;99.90;;;18.03;82.34;101274.25;4944464;28;20834;-71
2022/08/23 05:25:50;;;;;;;10.10;7.50;;;17.80;99.90;;;18.07;82.46;101273.53;4953186;28;20454;-71
2022/08/23 05:28:45;;;;;;;8.10;5.73;;;17.80;99.90;;;18.16;82.10;101273.97;4943555;28;20411;-70
2022/08/23 05:31:20;;;;;;;5.67;5.03;;;17.90;99.90;;;18.09;82.50;101276.03;4964562;23;20809;-70
2022/08/23 05:33:55;;;;;;;9.63;6.53;;;17.90;99.90;;;18.05;83.14;101275.69;4954545;28;20461;-71
2022/08/23 05:36:51;;;;;;;8.70;6.27;;;17.80;99.90;;;18.22;82.23;101278.50;4953288;28;20943;-73
2022/08/23 05:39:37;;;;;;;6.30;5.23;;;17.90;99.90;;;18.31;81.84;101285.25;4965477;28;20444;-72
2022/08/23 05:42:09;;;;;;;8.90;6.20;;;18.00;99.90;;;18.25;82.11;101281.56;4950518;28;20459;-73
2022/08/23 05:44:38;;;;;;;5.90;5.30;;;18.00;99.90;;;18.39;81.62;101287.63;4934455;29;20470;-74
2022/08/23 05:47:13;;;;;;;9.67;6.67;;;18.00;99.90;;;18.27;82.10;101285.97;4935130;29;20510;-73
2022/08/23 05:50:01;;;;;;;6.87;6.23;;;18.00;99.90;;;18.30;82.11;101289.06;4939546;29;20433;-72
2022/08/23 05:52:35;;;;;;;7.50;5.30;;;18.00;99.90;;;18.39;81.72;101289.53;4962842;28;20457;-74
2022/08/23 05:55:05;;;;;;;6.57;5.90;;;18.10;99.90;;;18.37;82.04;101284.28;4942573;29;20472;-72
2022/08/23 05:57:52;;;;;;;10.60;7.30;;;18.10;99.90;;;18.54;81.85;101281.63;4945430;29;20465;-70
2022/08/23 06:00:21;;;;;;;11.87;6.30;;;18.20;99.90;;;18.55;81.44;101292.31;4946996;29;20484;-71
2022/08/23 06:03:07;;;;;;;8.97;6.47;;;18.30;99.90;;;18.74;80.39;101292.09;4934604;29;20466;-73
2022/08/23 06:05:40;;;;;;;15.20;6.10;;;18.40;99.90;;;18.74;80.66;101294.84;4940017;29;20464;-73
2022/08/23 06:08:11;;;;;;;9.40;7.13;;;18.50;99.90;;;18.92;79.92;101294.66;4950989;28;20516;-72
2022/08/23 06:10:40;;;;;;;7.33;6.00;;;18.50;99.90;;;18.86;80.02;101288.25;4934299;29;20496;-73
2022/08/23 06:13:23;;;;;;;8.67;6.53;;;18.60;99.90;;;18.90;80.01;101305.03;4929938;29;20456;-73
2022/08/23 06:15:53;;;;;;;6.93;5.97;;;18.70;99.90;;;18.97;80.20;101305.72;4930903;29;20924;-72
2022/08/23 06:18:25;;;;;;;7.27;6.43;;;18.70;99.90;;;19.08;79.48;101308.38;4932590;29;20514;-72
2022/08/23 06:21:05;;;;;;;6.97;6.27;;;18.70;99.90;;;19.33;78.56;101310.69;4935280;29;20487;-73
2022/08/23 06:23:48;;;;;;;8.30;5.10;;;18.90;99.90;;;19.62;76.86;101305.13;4933992;29;20965;-73
2022/08/23 06:26:21;;;;;;;6.40;5.30;;;19.10;99.90;;;19.71;76.27;101295.38;4935287;29;20423;-73
2022/08/23 06:28:56;;;;;;;7.13;5.83;;;19.30;99.90;;;19.64;76.80;101302.97;4924425;29;20527;-72
2022/08/23 06:31:46;;;;;;;9.07;5.67;;;19.30;99.90;;;19.59;76.94;101311.97;4931778;29;20902;-72
2022/08/23 06:34:28;;;;;;;10.83;5.63;;;19.30;99.90;;;19.59;77.31;101308.41;4929424;29;20504;-69
2022/08/23 06:37:32;;;;;;;6.87;5.10;;;19.30;99.90;;;19.48;77.60;101308.25;4918008;29;20947;-72
2022/08/23 06:40:31;;;;;;;9.23;5.77;;;19.20;99.90;;;19.38;78.42;101301.72;4893827;29;20466;-72
2022/08/23 06:43:20;;;;;;;5.70;5.10;;;19.20;99.90;;;19.43;78.64;101310.88;4932359;29;20523;-72
2022/08/23 06:46:15;;;;;;;9.77;5.20;;;19.20;99.90;;;19.53;78.05;101311.06;4933403;29;20890;-72
2022/08/23 06:48:46;;;;;;;7.13;4.87;;;19.20;99.90;;;19.43;79.08;101316.34;4943915;28;20419;-72
2022/08/23 06:51:25;;;;;;;6.40;5.10;;;19.10;99.90;;;19.56;78.72;101314.41;4930195;29;20569;-71
2022/08/23 06:54:09;;;;;;;8.13;5.10;;;19.30;99.90;;;19.79;77.49;101314.19;4944936;28;20868;-72
2022/08/23 06:56:45;;;;;;;8.80;5.63;;;19.40;99.90;;;19.84;77.67;101314.25;4933693;28;20484;-72
2022/08/23 06:59:20;;;;;;;5.83;4.60;;;19.50;99.90;;;20.11;76.87;101317.91;4945148;28;20771;-72
2022/08/23 07:02:13;;;;;;;14.63;7.83;;;19.70;99.90;;;20.19;75.98;101313.88;4938074;29;20451;-72
2022/08/23 07:05:06;;;;;;;6.17;5.57;;;19.80;99.90;;;20.27;75.92;101322.53;4917712;29;20449;-72
2022/08/23 07:07:51;;;;;;;6.40;5.57;;;19.90;99.90;;;20.48;75.39;101322.81;4929686;29;20423;-72
2022/08/23 07:10:20;;;;;;;6.37;5.67;;;20.00;99.90;;;20.47;75.01;101315.66;4926327;29;20480;-70
2022/08/23 07:12:49;;;;;;;9.50;4.60;;;20.10;99.90;;;20.75;74.33;101312.66;4939240;29;20464;-71
2022/08/23 07:15:21;;;;;;;6.93;4.73;;;20.30;99.90;;;20.72;74.54;101316.72;4932717;29;20496;-72
2022/08/23 07:17:50;;;;;;;11.93;5.20;;;20.40;99.90;;;20.82;74.00;101313.25;4932671;29;20971;-71
2022/08/23 07:20:19;;;;;;;6.43;4.47;;;20.50;99.90;;;21.03;73.78;101320.63;4933962;29;20464;-72
2022/08/23 07:22:50;;;;;;;7.63;5.10;;;20.60;99.90;;;21.23;72.79;101320.00;4933436;29;21040;-75
2022/08/23 07:25:19;;;;;;;7.40;4.63;;;20.70;99.90;;;21.22;72.67;101313.66;4935981;29;20540;-71
2022/08/23 07:27:53;;;;;;;7.50;4.27;;;20.80;99.90;;;21.17;72.66;101327.38;4928416;29;20540;-72
2022/08/23 07:30:23;;;;;;;15.80;4.90;;;20.80;99.90;;;21.18;72.81;101312.53;4932476;29;20493;-73
2022/08/23 07:32:52;;;;;;;7.70;4.90;;;20.80;99.90;;;21.34;72.19;101312.66;4933951;29;20480;-70
2022/08/23 07:35:23;;;;;;;5.70;4.63;;;20.90;99.90;;;21.41;71.91;101316.00;4930807;29;20461;-74
2022/08/23 07:37:56;;;;;;;4.80;3.97;;;20.90;99.90;;;21.41;71.87;101313.25;4935802;29;20412;-73
2022/08/23 07:40:36;;;;;;;5.83;5.10;;;21.00;99.90;;;21.30;72.76;101317.03;4946997;28;20476;-72
2022/08/23 07:43:10;;;;;;;4.43;3.97;;;21.00;99.90;;;21.35;72.25;101319.84;4929652;29;20976;-75
2022/08/23 07:45:42;;;;;;;5.13;4.63;;;21.00;99.90;;;21.40;72.51;101325.34;4933683;29;20457;-72
2022/08/23 07:48:12;;;;;;;6.17;3.70;;;21.00;99.90;;;21.44;71.73;101319.09;4930753;29;20447;-71
2022/08/23 07:51:13;;;;;;;6.20;4.87;;;21.10;99.90;;;21.34;72.13;101319.00;4948929;28;20478;-72
2022/08/23 07:53:44;;;;;;;5.57;3.60;;;21.00;99.90;;;21.27;72.61;101318.38;4935399;29;20483;-72
2022/08/23 07:56:19;;;;;;;7.50;5.00;;;21.00;99.90;;;21.45;72.57;101330.91;4934172;29;20479;-73
2022/08/23 07:59:09;;;;;;;7.45;4.10;;;21.10;99.90;;;21.73;71.17;101324.25;4934560;29;20430;-71
2022/08/23 08:01:44;;;;;;;13.10;4.90;;;21.20;99.90;;;22.04;69.67;101326.91;4931490;29;20209;-71
2022/08/23 08:04:13;;;;;;;4.30;3.90;;;21.50;99.90;;;22.21;69.01;101325.91;4931565;29;20474;-72
2022/08/23 08:06:49;;;;;;;5.00;3.90;;;21.70;99.90;;;22.33;68.93;101329.25;4928213;29;20472;-72
2022/08/23 08:09:42;;;;;;;8.33;4.50;;;21.80;99.90;;;22.35;68.79;101327.91;4953842;28;20492;-74
2022/08/23 08:12:11;;;;;;;5.27;3.97;;;21.80;99.90;;;22.51;66.77;101328.78;4949934;28;20484;-73
2022/08/23 08:14:43;;;;;;;3.90;3.50;;;22.00;99.90;;;22.54;67.25;101326.31;4936475;29;20822;-72
2022/08/23 08:17:15;;;;;;;10.07;5.83;;;22.20;99.90;;;22.60;67.71;101338.19;4944648;29;20490;-72
2022/08/23 08:20:04;;;;;;;6.53;3.67;;;22.20;99.90;;;22.56;67.03;101333.50;4930613;29;20980;-72
2022/08/23 08:22:40;;;;;;;7.03;3.80;;;22.20;99.90;;;22.79;66.01;101338.53;4931319;29;20583;-72
2022/08/23 08:25:35;;;;;;;3.93;3.53;;;22.30;99.90;;;22.77;66.12;101341.56;4932843;29;20439;-74
2022/08/23 08:28:07;;;;;;;9.07;4.17;;;22.40;99.60;;;22.73;66.03;101345.97;4929432;29;20454;-73
2022/08/23 08:30:43;;;;;;;4.17;3.77;;;22.40;99.30;;;22.81;66.36;101339.91;4953693;28;20761;-74
2022/08/23 08:33:14;;;;;;;5.20;4.10;;;22.40;99.90;;;22.71;66.39;101331.63;4937390;29;20510;-73
2022/08/23 08:35:48;;;;;;;5.13;3.27;;;22.40;99.80;;;22.50;66.21;101338.16;4933368;29;20462;-73
2022/08/23 08:38:28;;;;;;;5.50;3.40;;;22.30;98.20;;;22.76;65.92;101334.38;4935257;29;20429;-71
2022/08/23 08:41:11;;;;;;;6.33;4.37;;;22.30;99.20;;;22.85;65.37;101338.25;4936828;29;20472;-73
2022/08/23 08:43:58;;;;;;;5.70;4.37;;;22.50;97.70;;;23.14;64.22;101337.78;4933634;29;21032;-73
2022/08/23 08:46:41;;;;;;;4.77;3.30;;;22.60;97.80;;;23.17;63.54;101335.28;4949617;28;20498;-71
2022/08/23 08:49:20;;;;;;;5.80;3.83;;;22.80;94.60;;;23.46;62.73;101338.34;4942983;29;20487;-74
2022/08/23 08:51:56;;;;;;;6.00;3.50;;;23.00;93.10;;;23.38;63.35;101333.38;4927014;29;20861;-71
2022/08/23 08:54:29;;;;;;;6.83;4.67;;;22.90;93.60;;;23.59;62.45;101336.94;4935857;29;20455;-71
2022/08/23 08:57:01;;;;;;;6.63;4.20;;;23.10;92.50;;;23.42;61.51;101339.16;4935313;29;20458;-73
2022/08/23 08:59:55;;;;;;;5.10;3.47;;;23.10;84.40;;;23.36;60.89;101341.09;4932757;29;20880;-73
2022/08/23 09:02:31;;;;;;;4.50;3.77;;;23.00;81.00;;;23.29;61.66;101343.28;4935441;29;20516;-73
2022/08/23 09:05:14;;;;;;;6.33;3.73;;;23.00;82.20;;;23.34;62.29;101335.00;4931136;29;20463;-74
2022/08/23 09:08:04;;;;;;;4.97;3.23;;;22.90;87.10;;;23.21;61.69;101338.31;4936078;29;20452;-70
2022/08/23 09:10:53;;;;;;;3.53;2.77;;;22.90;81.60;;;23.01;62.03;101341.06;4949528;28;20480;-74
2022/08/23 09:14:00;;;;;;;4.67;3.20;;;22.80;80.00;;;23.14;61.62;101343.28;4932989;29;20824;-74
2022/08/23 09:16:52;;;;;;;9.53;4.20;;;22.70;80.30;;;22.83;62.19;101351.53;4936040;29;20480;-72
2022/08/23 09:19:24;;;;;;;8.57;4.27;;;22.60;83.00;;;22.97;62.42;101338.03;4945999;28;21100;-71
2022/08/23 09:22:00;;;;;;;6.23;2.90;;;22.60;86.90;;;23.19;61.02;101343.31;4935723;29;21017;-74
2022/08/23 09:24:32;;;;;;;5.37;3.07;;;22.70;81.00;;;23.03;61.20;101338.84;4933829;29;20840;-73
2022/08/23 09:27:10;;;;;;;5.50;3.63;;;22.70;76.20;;;23.12;61.22;101348.25;4931999;29;20452;-73
2022/08/23 09:29:55;;;;;;;3.80;2.83;;;22.70;78.30;;;22.98;62.11;101339.69;4933318;29;20543;-73
2022/08/23 09:32:32;;;;;;;6.67;4.03;;;22.60;80.00;;;23.17;61.04;101339.97;4933140;29;20489;-72
2022/08/23 09:35:14;;;;;;;6.43;3.60;;;22.80;77.90;;;23.60;60.15;101342.22;4934850;29;20427;-72
2022/08/23 09:37:59;;;;;;;5.50;3.47;;;23.00;75.80;;;23.94;58.69;101336.06;4933021;29;20453;-72
2022/08/23 09:40:38;;;;;;;4.20;3.03;;;23.30;69.10;;;23.91;57.61;101339.41;4933541;29;20776;-72
2022/08/23 09:43:17;;;;;;;3.37;2.80;;;23.50;57.90;;;23.82;57.77;101339.94;4929472;29;20472;-72
2022/08/23 09:45:59;;;;;;;4.33;3.27;;;23.50;55.10;;;23.75;58.22;101342.19;4935988;29;20440;-71
2022/08/23 09:48:39;;;;;;;4.40;4.00;;;23.40;55.60;;;23.70;57.73;101331.16;4935624;29;20831;-73
2022/08/23 09:51:24;;;;;;;3.20;2.80;;;23.40;53.50;;;23.53;58.23;101327.84;4940337;29;20515;-72
2022/08/23 09:54:11;;;;;;;5.97;4.17;;;23.30;52.20;;;23.58;56.53;101332.53;4929478;29;20422;-72
2022/08/23 09:56:43;;;;;;;3.97;3.00;;;23.30;47.00;;;23.62;57.16;101340.00;4933715;29;20456;-75
2022/08/23 09:59:30;;;;;;;4.03;3.60;;;23.20;49.60;;;23.53;57.71;101341.66;4931724;29;20444;-74
2022/08/23 10:02:18;;;;;;;5.23;3.30;;;23.20;51.20;;;23.78;56.83;101333.31;4960646;28;20526;-72
2022/08/23 10:05:00;;;;;;;3.77;3.47;;;23.30;48.80;;;23.87;56.64;101335.53;4931880;29;20456;-74
2022/08/23 10:07:38;;;;;;;6.33;4.10;;;23.40;47.80;;;23.82;56.88;101334.41;4941197;29;20452;-72
2022/08/23 10:10:24;;;;;;;5.63;3.57;;;23.40;47.40;;;23.76;56.55;101338.31;4930778;29;20539;-72
2022/08/23 10:12:57;;;;;;;5.20;4.03;;;23.50;44.40;;;23.76;56.26;101343.03;4949104;28;20448;-72
2022/08/23 10:15:57;;;;;;;4.37;3.60;;;23.40;43.90;;;24.02;55.91;101341.84;4931418;29;20456;-75
2022/08/23 10:18:46;;;;;;;5.00;3.90;;;23.50;44.10;;;24.09;55.26;101336.03;4933515;29;20458;-73
2022/08/23 10:21:25;;;;;;;6.70;4.40;;;23.70;40.20;;;24.14;55.52;101334.06;4931009;29;20539;-72
2022/08/23 10:24:16;;;;;;;6.20;4.07;;;23.70;40.70;;;24.50;53.82;101336.69;4947133;28;20887;-74
2022/08/23 10:29:35;;;;;;;4.43;3.73;;;23.90;36.10;;;24.35;53.21;101340.38;4932008;29;20448;-72
2022/08/23 10:30:06;;;;;;;6.73;4.40;;;24.00;31.20;;;24.39;53.72;101340.66;4951731;28;20828;-73
2022/08/23 10:32:54;;;;;;;7.83;4.17;;;24.00;31.70;;;24.29;53.47;101338.75;4928526;29;20445;-74
2022/08/23 10:35:44;;;;;;;5.77;3.80;;;23.90;29.60;;;24.39;52.80;101333.19;4933173;29;20464;-73
2022/08/23 10:38:36;;;;;;;5.20;3.90;;;24.10;29.10;;;24.47;52.13;101338.09;4934851;29;20543;-73
2022/08/23 10:41:31;;;;;;;6.73;3.73;;;24.10;28.70;;;24.74;52.20;101334.09;4947104;28;20724;-73
2022/08/23 10:44:23;;;;;;;4.10;2.97;;;24.20;27.90;;;25.04;51.07;101336.69;4936094;29;20849;-73
2022/08/23 10:47:16;;;;;;;4.20;3.80;;;24.40;26.30;;;24.79;51.37;101334.88;4938392;29;20476;-73
2022/08/23 10:49:50;;;;;;;5.43;3.00;;;24.50;23.40;;;24.82;51.58;101337.09;4939831;29;20439;-73
2022/08/23 10:52:29;;;;;;;3.83;3.43;;;24.50;23.90;;;24.84;51.48;101325.72;4943153;29;20501;-73
2022/08/23 10:55:15;;;;;;;3.23;2.93;;;24.40;23.80;;;24.80;51.63;101336.53;4951389;29;20456;-73
2022/08/23 10:57:48;;;;;;;3.83;3.33;;;24.40;23.10;;;24.98;51.03;101332.31;4956480;29;20485;-73
2022/08/23 11:00:26;;;;;;;3.90;3.37;;;24.50;23.10;;;25.05;51.33;101328.09;4949123;29;20459;-73
2022/08/23 11:03:09;;;;;;;4.13;3.50;;;24.60;22.90;;;25.07;50.22;101334.19;4945466;29;20515;-73